createdAt,value
2018-03-25T00:01:12.800Z,4.10
2018-03-25T00:03:41.066Z,4.00
2018-03-25T00:06:08.546Z,4.00
2018-03-25T00:08:36.795Z,3.90
2018-03-25T00:11:05.073Z,3.80
2018-03-25T00:13:33.468Z,3.80
2018-03-25T00:16:01.735Z,3.70
2018-03-25T00:18:30.002Z,3.70
2018-03-25T00:20:58.558Z,3.60
2018-03-25T00:23:26.081Z,3.60
2018-03-25T00:25:53.560Z,3.60
2018-03-25T00:28:21.046Z,3.50
2018-03-25T00:30:48.536Z,3.50
2018-03-25T00:33:16.046Z,3.40
2018-03-25T00:35:43.515Z,3.40
2018-03-25T00:38:10.991Z,3.30
2018-03-25T00:40:38.464Z,3.30
2018-03-25T00:43:05.947Z,3.30
2018-03-25T00:45:33.431Z,3.30
2018-03-25T00:48:00.913Z,3.20
2018-03-25T00:50:29.192Z,3.10
2018-03-25T00:52:57.433Z,3.00
2018-03-25T00:55:25.696Z,3.00
2018-03-25T00:57:53.192Z,3.00
2018-03-25T01:00:21.431Z,3.00
2018-03-25T01:02:48.927Z,3.00
2018-03-25T01:05:16.485Z,3.00
2018-03-25T01:07:44.761Z,2.90
2018-03-25T01:10:12.303Z,2.90
2018-03-25T01:12:40.542Z,2.80
2018-03-25T01:15:08.048Z,2.80
2018-03-25T01:17:36.290Z,2.80
2018-03-25T01:20:03.823Z,2.80
2018-03-25T01:22:31.346Z,2.80
2018-03-25T01:24:58.850Z,2.80
2018-03-25T01:27:26.366Z,2.70
2018-03-25T01:29:53.836Z,2.70
2018-03-25T01:32:21.340Z,2.60
2018-03-25T01:34:48.828Z,2.60
2018-03-25T01:37:16.323Z,2.60
2018-03-25T01:39:43.780Z,2.60
2018-03-25T01:42:11.271Z,2.60
2018-03-25T01:44:38.731Z,2.60
2018-03-25T01:47:06.988Z,2.50
2018-03-25T01:49:34.448Z,2.50
2018-03-25T01:52:01.924Z,2.50
2018-03-25T01:54:30.172Z,2.50
2018-03-25T01:56:57.664Z,2.50
2018-03-25T01:59:25.154Z,2.50
2018-03-25T02:01:52.610Z,2.50
2018-03-25T02:04:20.086Z,2.50
2018-03-25T02:06:47.558Z,2.50
2018-03-25T02:09:15.804Z,2.40
2018-03-25T02:11:43.264Z,2.40
2018-03-25T02:14:10.845Z,2.40
2018-03-25T02:16:38.347Z,2.40
2018-03-25T02:19:05.842Z,2.30
2018-03-25T02:21:33.340Z,2.30
2018-03-25T02:24:01.608Z,2.10
2018-03-25T02:26:29.837Z,2.10
2018-03-25T02:28:57.337Z,2.10
2018-03-25T02:31:25.566Z,2.00
2018-03-25T02:33:53.056Z,2.00
2018-03-25T02:36:20.526Z,2.10
2018-03-25T02:38:48.014Z,2.10
2018-03-25T02:41:15.541Z,2.00
2018-03-25T02:43:43.807Z,2.10
2018-03-25T02:46:12.064Z,2.00
2018-03-25T02:48:39.546Z,2.00
2018-03-25T02:51:09.514Z,2.00
2018-03-25T02:53:36.980Z,1.90
2018-03-25T02:56:04.458Z,1.90
2018-03-25T02:58:31.919Z,1.90
2018-03-25T03:01:00.172Z,1.90
2018-03-25T03:03:28.427Z,1.90
2018-03-25T03:05:55.912Z,1.80
2018-03-25T03:08:23.461Z,1.90
2018-03-25T03:10:50.950Z,1.90
2018-03-25T03:13:18.430Z,1.90
2018-03-25T03:15:45.950Z,1.90
2018-03-25T03:18:13.505Z,1.80
2018-03-25T03:20:41.751Z,1.80
2018-03-25T03:23:09.232Z,1.80
2018-03-25T03:25:36.815Z,1.70
2018-03-25T03:28:05.039Z,1.70
2018-03-25T03:30:32.524Z,1.60
2018-03-25T03:33:00.005Z,1.60
2018-03-25T03:35:27.481Z,1.60
2018-03-25T03:37:54.962Z,1.60
2018-03-25T03:40:22.503Z,1.60
2018-03-25T03:42:51.366Z,1.60
2018-03-25T03:45:21.499Z,1.60
2018-03-25T03:47:48.993Z,1.60
2018-03-25T03:50:16.472Z,1.50
2018-03-25T03:52:44.708Z,1.50
2018-03-25T03:55:12.241Z,1.40
2018-03-25T03:57:39.726Z,1.40
2018-03-25T04:00:07.199Z,1.40
2018-03-25T04:02:34.945Z,1.40
2018-03-25T04:05:02.433Z,1.30
2018-03-25T04:07:29.918Z,1.30
2018-03-25T04:09:57.403Z,1.30
2018-03-25T04:12:24.859Z,1.30
2018-03-25T04:14:52.352Z,1.30
2018-03-25T04:17:19.845Z,1.20
2018-03-25T04:19:47.347Z,1.20
2018-03-25T04:22:14.826Z,1.20
2018-03-25T04:24:42.319Z,1.20
2018-03-25T04:27:09.804Z,1.10
2018-03-25T04:29:37.278Z,1.10
2018-03-25T04:32:04.786Z,1.10
2018-03-25T04:34:32.268Z,1.10
2018-03-25T04:36:59.736Z,1.00
2018-03-25T04:39:27.285Z,1.00
2018-03-25T04:41:54.764Z,1.00
2018-03-25T04:44:22.269Z,1.00
2018-03-25T04:46:49.768Z,0.90
2018-03-25T04:49:17.278Z,0.90
2018-03-25T04:51:44.751Z,0.90
2018-03-25T04:54:12.232Z,0.90
2018-03-25T04:56:40.572Z,0.90
2018-03-25T04:59:08.039Z,0.80
2018-03-25T05:01:35.520Z,0.80
2018-03-25T05:04:03.000Z,0.80
2018-03-25T05:06:31.322Z,0.80
2018-03-25T05:08:58.818Z,0.80
2018-03-25T05:11:26.314Z,0.80
2018-03-25T05:13:53.773Z,0.80
2018-03-25T05:16:21.260Z,0.80
2018-03-25T05:18:49.319Z,0.80
2018-03-25T05:21:16.799Z,0.80
2018-03-25T05:23:44.270Z,0.80
2018-03-25T05:26:11.761Z,0.70
2018-03-25T05:28:40.040Z,0.70
2018-03-25T05:31:07.511Z,0.70
2018-03-25T05:33:35.000Z,0.70
2018-03-25T05:36:02.478Z,0.70
2018-03-25T05:38:29.970Z,0.80
2018-03-25T05:40:57.461Z,0.80
2018-03-25T05:43:24.951Z,0.80
2018-03-25T05:45:53.785Z,1.00
2018-03-25T05:48:21.271Z,0.90
2018-03-25T05:50:48.750Z,1.00
2018-03-25T05:53:16.250Z,1.20
2018-03-25T05:55:43.715Z,1.30
2018-03-25T05:58:11.211Z,1.40
2018-03-25T06:00:38.696Z,1.50
2018-03-25T06:03:06.271Z,1.70
2018-03-25T06:05:33.776Z,1.90
2018-03-25T06:08:01.248Z,2.10
2018-03-25T06:10:29.501Z,2.50
2018-03-25T06:12:57.332Z,2.60
2018-03-25T06:15:24.842Z,2.80
2018-03-25T06:17:52.315Z,3.10
2018-03-25T06:20:20.582Z,3.50
2018-03-25T06:22:48.865Z,3.70
2018-03-25T06:25:17.139Z,4.00
2018-03-25T06:27:45.387Z,4.30
2018-03-25T06:30:14.432Z,4.70
2018-03-25T06:32:41.943Z,4.80
2018-03-25T06:35:09.499Z,5.20
2018-03-25T06:37:36.953Z,5.60
2018-03-25T06:40:04.439Z,6.10
2018-03-25T06:42:32.692Z,7.10
2018-03-25T06:45:00.939Z,7.60
2018-03-25T06:47:28.443Z,7.60
2018-03-25T06:49:55.894Z,8.00
2018-03-25T06:52:23.408Z,8.40
2018-03-25T06:54:50.882Z,8.90
2018-03-25T06:57:18.370Z,9.40
2018-03-25T06:59:45.845Z,9.80
2018-03-25T07:02:13.326Z,10.30
2018-03-25T07:04:40.796Z,10.80
2018-03-25T07:07:09.806Z,11.20
2018-03-25T07:09:38.060Z,11.40
2018-03-25T07:12:05.660Z,11.40
2018-03-25T07:14:33.913Z,12.30
2018-03-25T07:17:01.381Z,12.30
2018-03-25T07:19:29.697Z,13.20
2018-03-25T07:21:57.159Z,13.20
2018-03-25T07:24:24.648Z,13.40
2018-03-25T07:26:52.577Z,13.60
2018-03-25T07:29:20.146Z,14.00
2018-03-25T07:31:47.627Z,14.10
2018-03-25T07:34:15.182Z,14.50
2018-03-25T07:36:42.658Z,14.30
2018-03-25T07:39:11.027Z,15.00
2018-03-25T07:41:39.344Z,14.90
2018-03-25T07:44:06.842Z,14.90
2018-03-25T07:46:34.311Z,14.50
2018-03-25T07:49:02.575Z,15.70
2018-03-25T07:51:30.067Z,15.70
2018-03-25T07:53:57.568Z,16.30
2018-03-25T07:56:25.099Z,16.70
2018-03-25T07:58:52.583Z,17.00
2018-03-25T08:01:20.107Z,17.40
2018-03-25T08:03:47.609Z,17.60
2018-03-25T08:06:15.076Z,17.40
2018-03-25T08:08:42.568Z,17.70
2018-03-25T08:11:10.123Z,18.20
2018-03-25T08:13:37.595Z,18.40
2018-03-25T08:16:05.087Z,18.80
2018-03-25T08:18:32.556Z,18.90
2018-03-25T08:21:00.052Z,18.80
2018-03-25T08:23:27.553Z,19.00
2018-03-25T08:25:56.611Z,19.50
2018-03-25T08:28:24.100Z,19.50
2018-03-25T08:30:51.613Z,19.40
2018-03-25T08:33:19.098Z,19.70
2018-03-25T08:35:46.600Z,19.60
2018-03-25T08:38:14.848Z,19.60
2018-03-25T08:40:42.316Z,19.60
2018-03-25T08:43:09.816Z,19.20
2018-03-25T08:45:37.330Z,18.90
2018-03-25T08:48:05.571Z,21.00
2018-03-25T08:50:33.084Z,21.00
2018-03-25T08:53:01.337Z,21.50
2018-03-25T08:55:28.842Z,21.40
2018-03-25T08:57:56.323Z,19.90
2018-03-25T09:00:23.792Z,20.00
2018-03-25T09:02:51.305Z,20.60
2018-03-25T09:05:18.808Z,20.20
2018-03-25T09:07:46.307Z,20.50
2018-03-25T09:10:13.805Z,20.40
2018-03-25T09:12:41.312Z,19.00
2018-03-25T09:15:08.799Z,19.50
2018-03-25T09:17:36.278Z,19.50
2018-03-25T09:20:04.011Z,19.50
2018-03-25T09:22:31.497Z,19.60
2018-03-25T09:24:58.976Z,20.90
2018-03-25T09:27:27.237Z,21.10
2018-03-25T09:29:54.714Z,21.10
2018-03-25T09:32:22.980Z,19.60
2018-03-25T09:34:50.485Z,19.60
2018-03-25T09:37:18.061Z,19.10
2018-03-25T09:39:45.536Z,19.80
2018-03-25T09:42:13.508Z,21.00
2018-03-25T09:44:40.996Z,22.20
2018-03-25T09:47:08.458Z,22.60
2018-03-25T09:49:35.954Z,23.20
2018-03-25T09:52:03.427Z,23.10
2018-03-25T09:54:31.018Z,23.20
2018-03-25T09:56:58.515Z,23.80
2018-03-25T09:59:26.019Z,24.30
2018-03-25T10:02:00.029Z,23.10
2018-03-25T10:04:28.382Z,23.00
2018-03-25T10:06:56.719Z,23.50
2018-03-25T10:09:24.220Z,23.50
2018-03-25T10:11:51.694Z,22.30
2018-03-25T10:14:19.967Z,21.50
2018-03-25T10:16:48.286Z,23.10
2018-03-25T10:19:16.503Z,23.50
2018-03-25T10:21:43.989Z,23.50
2018-03-25T10:24:11.479Z,22.80
2018-03-25T11:37:52.998Z,18.50
2018-03-25T11:40:20.494Z,18.50
2018-03-25T11:42:49.408Z,17.80
2018-03-25T11:45:18.173Z,17.20
2018-03-25T11:47:45.654Z,16.80
2018-03-25T11:50:14.255Z,17.20
2018-03-25T11:52:41.778Z,17.10
2018-03-25T11:55:10.025Z,17.40
2018-03-25T11:57:37.561Z,17.40
2018-03-25T12:00:05.060Z,17.50
2018-03-25T12:02:33.792Z,17.40
2018-03-25T12:05:01.629Z,17.40
2018-03-25T12:07:30.007Z,17.90
2018-03-25T12:09:58.262Z,18.00
2018-03-25T12:12:26.517Z,17.80
2018-03-25T12:14:54.814Z,17.80
2018-03-25T12:17:23.074Z,18.10
2018-03-25T12:19:50.552Z,18.00
2018-03-25T12:22:18.846Z,18.20
2018-03-25T12:24:46.344Z,18.20
2018-03-25T12:27:13.824Z,18.00
2018-03-25T12:29:41.434Z,18.20
2018-03-25T12:32:08.906Z,18.40
2018-03-25T12:34:36.462Z,18.50
2018-03-25T12:37:03.971Z,18.70
2018-03-25T12:39:32.248Z,19.00
2018-03-25T12:42:00.522Z,19.10
2018-03-25T12:44:28.791Z,18.90
2018-03-25T12:46:57.083Z,18.40
2018-03-25T12:49:24.589Z,18.30
2018-03-25T12:51:52.138Z,18.20
2018-03-25T12:54:19.639Z,18.20
2018-03-25T12:56:47.954Z,17.90
2018-03-25T12:59:15.466Z,17.90
2018-03-25T13:01:43.925Z,18.00
2018-03-25T13:04:11.387Z,18.00
2018-03-25T13:06:38.895Z,18.20
2018-03-25T13:09:06.458Z,18.50
2018-03-25T13:11:33.955Z,18.70
2018-03-25T13:14:01.472Z,18.80
2018-03-25T13:16:28.969Z,18.50
2018-03-25T13:18:56.502Z,18.70
2018-03-25T13:21:24.042Z,18.40
2018-03-25T13:23:51.521Z,18.60
2018-03-25T13:26:19.063Z,18.60
2018-03-25T13:28:46.578Z,18.70
2018-03-25T13:31:14.877Z,18.10
2018-03-25T13:33:42.368Z,18.00
2018-03-25T13:36:10.209Z,17.20
2018-03-25T13:38:38.419Z,16.40
2018-03-25T13:41:06.038Z,15.80
2018-03-25T13:43:33.530Z,15.40
2018-03-25T13:46:00.985Z,15.20
2018-03-25T13:48:28.977Z,15.40
2018-03-25T13:50:57.214Z,15.70
2018-03-25T13:53:24.713Z,15.60
2018-03-25T13:55:52.979Z,16.00
2018-03-25T13:58:20.533Z,16.00
2018-03-25T14:00:48.029Z,16.20
2018-03-25T14:03:15.943Z,16.40
2018-03-25T14:05:43.501Z,16.60
2018-03-25T14:08:10.981Z,16.70
2018-03-25T14:10:39.360Z,16.80
2018-03-25T14:13:07.865Z,17.00
2018-03-25T14:15:35.484Z,16.90
2018-03-25T14:18:02.976Z,16.70
2018-03-25T14:20:30.480Z,17.00
2018-03-25T14:22:58.000Z,17.10
2018-03-25T14:25:25.762Z,17.00
2018-03-25T14:27:53.291Z,17.10
2018-03-25T14:30:21.533Z,16.80
2018-03-25T14:32:49.061Z,16.80
2018-03-25T14:35:16.572Z,16.70
2018-03-25T14:37:44.832Z,16.80
2018-03-25T14:40:13.121Z,17.00
2018-03-25T14:42:42.271Z,16.90
2018-03-25T14:45:09.776Z,17.10
2018-03-25T14:47:38.085Z,17.30
2018-03-25T14:50:05.630Z,17.30
2018-03-25T14:52:33.123Z,17.40
2018-03-25T14:55:00.612Z,17.40
2018-03-25T14:57:28.872Z,16.40
2018-03-25T14:59:56.378Z,16.40
2018-03-25T15:02:23.913Z,16.40
2018-03-25T15:04:51.411Z,16.50
2018-03-25T15:07:18.956Z,16.50
2018-03-25T15:09:46.395Z,16.60
2018-03-25T15:12:13.904Z,16.60
2018-03-25T15:14:41.415Z,16.50
2018-03-25T15:17:08.978Z,16.50
2018-03-25T15:19:37.306Z,16.60
2018-03-25T15:22:04.793Z,16.60
2018-03-25T15:24:32.307Z,16.40
2018-03-25T15:27:01.360Z,16.30
2018-03-25T15:29:28.854Z,16.30
2018-03-25T15:31:56.354Z,16.00
2018-03-25T15:34:24.640Z,15.80
2018-03-25T15:36:52.285Z,15.80
2018-03-25T15:39:20.539Z,15.60
2018-03-25T15:41:48.829Z,15.50
2018-03-25T15:44:17.088Z,15.30
2018-03-25T15:46:45.457Z,15.00
2018-03-25T15:49:13.722Z,15.10
2018-03-25T15:51:41.297Z,15.10
2018-03-25T15:54:08.778Z,15.10
2018-03-25T15:56:36.301Z,15.20
2018-03-25T15:59:03.809Z,15.30
2018-03-25T16:01:31.334Z,15.20
2018-03-25T16:03:59.805Z,15.00
2018-03-25T16:06:29.065Z,14.90
2018-03-25T16:08:56.569Z,14.90
2018-03-25T16:11:24.836Z,14.90
2018-03-25T16:13:53.089Z,14.90
2018-03-25T16:16:21.377Z,14.80
2018-03-25T16:18:48.877Z,14.80
2018-03-25T16:21:16.425Z,14.60
2018-03-25T16:23:43.952Z,14.50
2018-03-25T16:26:11.429Z,14.30
2018-03-25T16:28:39.450Z,14.10
2018-03-25T16:31:06.987Z,14.00
2018-03-25T16:33:34.497Z,13.90
2018-03-25T16:36:01.998Z,13.80
2018-03-25T16:38:29.487Z,13.70
2018-03-25T16:40:57.000Z,13.70
2018-03-25T16:43:24.495Z,13.60
2018-03-25T16:45:53.503Z,13.40
2018-03-25T16:48:20.992Z,13.40
2018-03-25T16:50:48.670Z,13.40
2018-03-25T16:53:16.182Z,13.40
2018-03-25T16:55:43.671Z,13.30
2018-03-25T16:58:11.165Z,13.30
2018-03-25T17:00:38.673Z,13.20
2018-03-25T17:03:06.175Z,13.10
2018-03-25T17:05:33.666Z,13.10
2018-03-25T17:08:01.949Z,13.00
2018-03-25T17:10:30.203Z,13.00
2018-03-25T17:12:57.703Z,13.00
2018-03-25T17:15:25.198Z,12.90
2018-03-25T17:17:52.703Z,12.80
2018-03-25T17:20:20.195Z,12.70
2018-03-25T17:22:47.723Z,12.80
2018-03-25T17:25:15.227Z,12.70
2018-03-25T17:27:42.711Z,12.70
2018-03-25T17:30:10.983Z,12.60
2018-03-25T17:32:39.278Z,12.60
2018-03-25T17:35:06.791Z,12.50
2018-03-25T17:37:34.289Z,12.50
2018-03-25T17:40:01.802Z,12.50
2018-03-25T17:42:29.294Z,12.40
2018-03-25T17:44:57.557Z,12.40
2018-03-25T17:47:25.820Z,12.30
2018-03-25T17:49:53.333Z,12.30
2018-03-25T17:52:20.835Z,12.40
2018-03-25T17:54:48.328Z,12.30
2018-03-25T17:57:15.799Z,12.20
2018-03-25T17:59:43.309Z,12.00
2018-03-25T18:02:10.812Z,11.90
2018-03-25T18:04:38.298Z,11.90
2018-03-25T18:07:05.817Z,11.80
2018-03-25T18:09:33.337Z,11.70
2018-03-25T18:12:00.832Z,11.70
2018-03-25T18:14:28.345Z,11.70
2018-03-25T18:16:55.882Z,11.70
2018-03-25T18:19:23.414Z,11.60
2018-03-25T18:21:51.609Z,11.50
2018-03-25T18:24:19.253Z,11.50
2018-03-25T18:26:46.662Z,11.50
2018-03-25T18:29:14.918Z,11.40
2018-03-25T18:31:42.493Z,11.40
2018-03-25T18:34:10.009Z,11.40
2018-03-25T18:36:37.514Z,11.40
2018-03-25T18:39:05.924Z,11.40
2018-03-25T18:41:33.429Z,11.30
2018-03-25T18:44:00.933Z,11.30
2018-03-25T18:46:28.445Z,11.30
2018-03-25T18:48:56.725Z,11.30
2018-03-25T18:51:25.005Z,11.30
2018-03-25T18:53:53.279Z,11.30
2018-03-25T18:56:22.530Z,11.30
2018-03-25T18:58:50.061Z,11.20
2018-03-25T19:01:17.552Z,11.20
2018-03-25T19:03:45.064Z,11.20
2018-03-25T19:06:12.560Z,11.20
2018-03-25T19:08:40.094Z,11.10
2018-03-25T19:11:07.872Z,11.00
2018-03-25T19:13:35.372Z,11.00
2018-03-25T19:16:03.720Z,10.90
2018-03-25T19:18:31.342Z,10.90
2018-03-25T19:20:58.839Z,10.80
2018-03-25T19:23:26.403Z,10.80
2018-03-25T19:25:53.909Z,10.80
2018-03-25T19:28:21.494Z,10.80
2018-03-25T19:30:49.033Z,10.80
2018-03-25T19:33:16.616Z,10.80
2018-03-25T19:35:44.288Z,10.90
2018-03-25T19:38:11.884Z,10.90
2018-03-25T19:40:40.152Z,10.90
2018-03-25T19:43:08.528Z,10.90
2018-03-25T19:45:36.993Z,10.90
2018-03-25T19:48:04.803Z,10.90
2018-03-25T19:50:32.303Z,10.90
2018-03-25T19:52:59.803Z,10.90
2018-03-25T19:55:27.292Z,10.90
2018-03-25T19:57:55.179Z,11.00
2018-03-25T20:00:22.712Z,10.90
2018-03-25T20:02:50.196Z,10.90
2018-03-25T20:05:17.696Z,10.90
2018-03-25T20:07:45.191Z,10.90
2018-03-25T20:10:12.672Z,10.90
2018-03-25T20:12:40.168Z,10.90
2018-03-25T20:15:07.651Z,10.90
2018-03-25T20:17:35.171Z,10.90
2018-03-25T20:20:02.651Z,10.80
2018-03-25T20:22:30.156Z,10.80
2018-03-25T20:24:58.426Z,10.80
2018-03-25T20:27:25.914Z,10.80
2018-03-25T20:29:53.440Z,10.80
2018-03-25T20:32:20.917Z,10.80
2018-03-25T20:34:49.200Z,10.80
2018-03-25T20:37:16.679Z,10.70
2018-03-25T20:39:44.211Z,10.80
2018-03-25T20:42:12.701Z,10.80
2018-03-25T20:44:40.214Z,10.70
2018-03-25T20:47:07.734Z,10.70
2018-03-25T20:49:35.259Z,10.80
2018-03-25T20:52:02.763Z,10.70
2018-03-25T20:54:30.281Z,10.70
2018-03-25T20:56:57.759Z,10.70
2018-03-25T20:59:25.290Z,10.60
2018-03-25T21:01:52.796Z,10.60
2018-03-25T21:04:20.315Z,10.60
2018-03-25T21:06:47.790Z,10.60
2018-03-25T21:09:15.257Z,10.60
2018-03-25T21:11:42.760Z,10.60
2018-03-25T21:14:11.017Z,10.60
2018-03-25T21:16:38.617Z,10.60
2018-03-25T21:19:06.085Z,10.50
2018-03-25T21:21:33.578Z,10.50
2018-03-25T21:24:01.063Z,10.50
2018-03-25T21:26:29.306Z,10.30
2018-03-25T21:28:56.780Z,10.30
2018-03-25T21:31:26.407Z,10.30
2018-03-25T21:33:53.900Z,10.30
2018-03-25T21:36:21.421Z,10.30
2018-03-25T21:38:49.676Z,10.30
2018-03-25T21:41:17.936Z,10.30
2018-03-25T21:43:45.414Z,10.30
2018-03-25T21:46:12.923Z,10.20
2018-03-25T21:48:40.421Z,10.20
2018-03-25T21:51:08.707Z,10.10
2018-03-25T21:53:36.191Z,10.10
2018-03-25T21:56:03.699Z,10.00
2018-03-25T21:58:31.165Z,9.90
2018-03-25T22:00:59.392Z,9.80
2018-03-25T22:03:26.911Z,9.80
2018-03-25T22:05:55.127Z,9.80
2018-03-25T22:08:22.608Z,9.80
2018-03-25T22:10:50.077Z,9.80
2018-03-25T22:13:18.339Z,9.80
2018-03-25T22:15:45.806Z,9.80
2018-03-25T22:18:14.051Z,9.70
2018-03-25T22:20:41.546Z,9.70
2018-03-25T22:23:09.787Z,9.80
2018-03-25T22:25:37.272Z,9.80
2018-03-25T22:28:05.518Z,9.80
2018-03-25T22:30:33.028Z,9.80
2018-03-25T22:33:00.532Z,9.80
2018-03-25T22:35:28.015Z,9.80
2018-03-25T22:37:56.303Z,9.90
2018-03-25T22:40:23.795Z,9.80
2018-03-25T22:42:51.269Z,9.90
2018-03-25T22:45:18.778Z,9.90
2018-03-25T22:47:46.370Z,9.90
2018-03-25T22:50:13.905Z,10.00
2018-03-25T22:52:41.370Z,9.90
2018-03-25T22:55:08.925Z,9.90
2018-03-25T22:57:36.536Z,9.90
2018-03-25T23:00:04.840Z,9.90
2018-03-25T23:02:32.410Z,9.90
2018-03-25T23:05:00.751Z,9.90
2018-03-25T23:07:29.005Z,9.90
2018-03-25T23:09:56.654Z,9.80
2018-03-25T23:12:24.161Z,9.80
2018-03-25T23:14:51.627Z,9.80
2018-03-25T23:17:19.126Z,9.80
2018-03-25T23:19:46.616Z,9.80
2018-03-25T23:22:14.189Z,9.80
2018-03-25T23:24:41.802Z,9.80
2018-03-25T23:27:09.290Z,9.70
2018-03-25T23:29:38.090Z,9.70
2018-03-25T23:32:05.575Z,9.70
2018-03-25T23:34:33.065Z,9.60
2018-03-25T23:37:00.555Z,9.60
2018-03-25T23:39:28.051Z,9.60
2018-03-25T23:41:55.540Z,9.60
2018-03-25T23:44:23.057Z,9.60
2018-03-25T23:46:50.527Z,9.60
2018-03-25T23:49:18.003Z,9.60
2018-03-25T23:51:45.543Z,9.60
2018-03-25T23:54:13.019Z,9.50
2018-03-25T23:56:40.557Z,9.50
2018-03-25T23:59:08.090Z,9.50
